sensor_id;sensor_type;location;lat;lon;timestamp;pressure;altitude;pressure_sealevel;temperature;humidity
37200;BME280;23096;50.892;16.746;2023-04-07T00:00:55;99485.77;;;4.06;53.75
37200;BME280;23096;50.892;16.746;2023-04-07T00:03:21;99485.25;;;4.05;53.84
37200;BME280;23096;50.892;16.746;2023-04-07T00:05:48;99484.25;;;4.02;53.91
37200;BME280;23096;50.892;16.746;2023-04-07T00:08:13;99484.91;;;4.02;53.89
37200;BME280;23096;50.892;16.746;2023-04-07T00:10:40;99484.23;;;4.03;54.10
37200;BME280;23096;50.892;16.746;2023-04-07T00:13:05;99483.40;;;3.99;54.03
37200;BME280;23096;50.892;16.746;2023-04-07T00:15:31;99482.70;;;3.97;54.05
37200;BME280;23096;50.892;16.746;2023-04-07T00:17:56;99481.19;;;3.95;54.14
37200;BME280;23096;50.892;16.746;2023-04-07T00:20:22;99478.98;;;3.91;54.27
37200;BME280;23096;50.892;16.746;2023-04-07T00:22:48;99474.91;;;3.89;54.26
37200;BME280;23096;50.892;16.746;2023-04-07T00:25:13;99474.05;;;3.89;54.34
37200;BME280;23096;50.892;16.746;2023-04-07T00:27:39;99477.79;;;3.87;54.36
37200;BME280;23096;50.892;16.746;2023-04-07T00:30:05;99479.33;;;3.85;54.52
37200;BME280;23096;50.892;16.746;2023-04-07T00:32:31;99477.80;;;3.84;54.57
37200;BME280;23096;50.892;16.746;2023-04-07T00:34:58;99475.25;;;3.81;54.71
37200;BME280;23096;50.892;16.746;2023-04-07T00:37:24;99477.46;;;3.76;54.62
37200;BME280;23096;50.892;16.746;2023-04-07T00:39:50;99477.63;;;3.75;54.65
37200;BME280;23096;50.892;16.746;2023-04-07T00:42:17;99476.79;;;3.71;54.75
37200;BME280;23096;50.892;16.746;2023-04-07T00:44:43;99480.19;;;3.69;54.93
37200;BME280;23096;50.892;16.746;2023-04-07T00:47:08;99481.88;;;3.65;55.09
37200;BME280;23096;50.892;16.746;2023-04-07T00:49:36;99479.52;;;3.62;55.00
37200;BME280;23096;50.892;16.746;2023-04-07T00:52:03;99476.61;;;3.59;55.29
37200;BME280;23096;50.892;16.746;2023-04-07T00:54:29;99474.57;;;3.61;55.38
37200;BME280;23096;50.892;16.746;2023-04-07T00:56:55;99469.48;;;3.63;55.36
37200;BME280;23096;50.892;16.746;2023-04-07T00:59:22;99465.58;;;3.63;55.38
37200;BME280;23096;50.892;16.746;2023-04-07T01:01:55;99468.46;;;3.59;55.41
37200;BME280;23096;50.892;16.746;2023-04-07T01:04:37;99466.92;;;3.49;55.60
37200;BME280;23096;50.892;16.746;2023-04-07T01:07:59;99464.89;;;3.41;55.79
37200;BME280;23096;50.892;16.746;2023-04-07T01:10:45;99465.90;;;3.31;56.01
37200;BME280;23096;50.892;16.746;2023-04-07T01:13:22;99460.61;;;3.20;56.17
37200;BME280;23096;50.892;16.746;2023-04-07T01:15:57;99458.40;;;3.12;56.33
37200;BME280;23096;50.892;16.746;2023-04-07T01:18:32;99452.45;;;3.05;56.56
37200;BME280;23096;50.892;16.746;2023-04-07T01:21:03;99449.55;;;3.02;56.93
37200;BME280;23096;50.892;16.746;2023-04-07T01:26:16;99451.93;;;3.06;57.15
37200;BME280;23096;50.892;16.746;2023-04-07T01:31:21;99449.91;;;3.10;57.43
37200;BME280;23096;50.892;16.746;2023-04-07T01:33:48;99446.02;;;3.11;57.66
37200;BME280;23096;50.892;16.746;2023-04-07T01:36:15;99444.15;;;3.10;57.66
37200;BME280;23096;50.892;16.746;2023-04-07T01:38:43;99440.58;;;3.06;57.76
37200;BME280;23096;50.892;16.746;2023-04-07T01:41:09;99440.91;;;3.03;57.95
37200;BME280;23096;50.892;16.746;2023-04-07T01:43:38;99438.86;;;3.03;58.15
37200;BME280;23096;50.892;16.746;2023-04-07T01:46:04;99437.68;;;3.02;58.28
37200;BME280;23096;50.892;16.746;2023-04-07T01:48:30;99434.63;;;3.02;58.48
37200;BME280;23096;50.892;16.746;2023-04-07T01:50:56;99430.88;;;3.00;58.49
37200;BME280;23096;50.892;16.746;2023-04-07T01:53:22;99429.19;;;2.98;58.65
37200;BME280;23096;50.892;16.746;2023-04-07T01:55:48;99428.34;;;2.99;58.80
37200;BME280;23096;50.892;16.746;2023-04-07T01:58:14;99422.73;;;3.00;59.02
37200;BME280;23096;50.892;16.746;2023-04-07T02:00:41;99420.70;;;3.01;59.03
37200;BME280;23096;50.892;16.746;2023-04-07T02:03:22;99417.66;;;3.04;59.23
37200;BME280;23096;50.892;16.746;2023-04-07T02:05:54;99417.31;;;3.03;59.19
37200;BME280;23096;50.892;16.746;2023-04-07T02:08:26;99414.94;;;3.03;59.32
37200;BME280;23096;50.892;16.746;2023-04-07T02:10:54;99417.14;;;3.04;59.46
37200;BME280;23096;50.892;16.746;2023-04-07T02:13:20;99415.27;;;3.05;59.47
37200;BME280;23096;50.892;16.746;2023-04-07T02:15:48;99412.23;;;3.05;59.63
37200;BME280;23096;50.892;16.746;2023-04-07T02:18:18;99410.52;;;3.05;59.71
37200;BME280;23096;50.892;16.746;2023-04-07T02:20:44;99406.63;;;3.06;59.77
37200;BME280;23096;50.892;16.746;2023-04-07T02:23:12;99402.71;;;3.07;59.83
37200;BME280;23096;50.892;16.746;2023-04-07T02:25:37;99400.84;;;3.05;59.86
37200;BME280;23096;50.892;16.746;2023-04-07T02:28:04;99391.17;;;3.02;60.07
37200;BME280;23096;50.892;16.746;2023-04-07T02:30:30;99390.83;;;3.02;60.08
37200;BME280;23096;50.892;16.746;2023-04-07T02:32:56;99392.52;;;2.99;60.18
37200;BME280;23096;50.892;16.746;2023-04-07T02:35:22;99396.26;;;2.97;60.11
37200;BME280;23096;50.892;16.746;2023-04-07T02:37:47;99396.59;;;2.96;60.21
37200;BME280;23096;50.892;16.746;2023-04-07T02:40:13;99395.23;;;2.97;60.34
37200;BME280;23096;50.892;16.746;2023-04-07T02:42:39;99397.80;;;2.96;60.41
37200;BME280;23096;50.892;16.746;2023-04-07T02:45:06;99394.89;;;2.96;60.37
37200;BME280;23096;50.892;16.746;2023-04-07T02:47:33;99389.81;;;2.97;60.62
37200;BME280;23096;50.892;16.746;2023-04-07T02:49:58;99388.10;;;2.98;60.57
37200;BME280;23096;50.892;16.746;2023-04-07T02:52:24;99387.77;;;2.98;60.72
37200;BME280;23096;50.892;16.746;2023-04-07T02:54:50;99387.44;;;2.98;60.64
37200;BME280;23096;50.892;16.746;2023-04-07T02:57:17;99385.40;;;2.99;60.82
37200;BME280;23096;50.892;16.746;2023-04-07T02:59:43;99386.59;;;3.01;60.82
37200;BME280;23096;50.892;16.746;2023-04-07T03:02:10;99385.06;;;3.02;60.83
37200;BME280;23096;50.892;16.746;2023-04-07T03:04:36;99385.73;;;2.99;60.79
37200;BME280;23096;50.892;16.746;2023-04-07T03:07:01;99384.04;;;2.96;60.93
37200;BME280;23096;50.892;16.746;2023-04-07T03:09:28;99385.73;;;2.92;60.96
37200;BME280;23096;50.892;16.746;2023-04-07T03:11:54;99387.77;;;2.90;61.03
37200;BME280;23096;50.892;16.746;2023-04-07T03:14:20;99384.02;;;2.88;61.11
37200;BME280;23096;50.892;16.746;2023-04-07T03:16:47;99387.09;;;2.87;61.18
37200;BME280;23096;50.892;16.746;2023-04-07T03:19:13;99388.27;;;2.87;61.13
37200;BME280;23096;50.892;16.746;2023-04-07T03:21:42;99387.24;;;2.84;61.36
37200;BME280;23096;50.892;16.746;2023-04-07T03:24:07;99383.00;;;2.84;61.43
37200;BME280;23096;50.892;16.746;2023-04-07T03:26:33;99378.59;;;2.85;61.42
37200;BME280;23096;50.892;16.746;2023-04-07T03:28:59;99376.55;;;2.82;61.45
37200;BME280;23096;50.892;16.746;2023-04-07T03:31:26;99371.29;;;2.79;61.59
37200;BME280;23096;50.892;16.746;2023-04-07T03:33:52;99370.77;;;2.77;61.61
37200;BME280;23096;50.892;16.746;2023-04-07T03:36:18;99365.00;;;2.76;61.74
37200;BME280;23096;50.892;16.746;2023-04-07T03:38:46;99366.02;;;2.75;61.66
37200;BME280;23096;50.892;16.746;2023-04-07T03:41:11;99365.17;;;2.75;61.92
37200;BME280;23096;50.892;16.746;2023-04-07T03:43:37;99368.55;;;2.72;61.85
37200;BME280;23096;50.892;16.746;2023-04-07T03:46:02;99372.13;;;2.72;61.91
37200;BME280;23096;50.892;16.746;2023-04-07T03:48:29;99373.48;;;2.72;62.03
37200;BME280;23096;50.892;16.746;2023-04-07T03:51:06;99374.85;;;2.72;62.08
37200;BME280;23096;50.892;16.746;2023-04-07T03:53:32;99374.16;;;2.73;62.22
37200;BME280;23096;50.892;16.746;2023-04-07T03:55:58;99373.99;;;2.71;62.25
37200;BME280;23096;50.892;16.746;2023-04-07T03:58:45;99372.63;;;2.71;62.35
37200;BME280;23096;50.892;16.746;2023-04-07T04:01:15;99374.50;;;2.72;62.43
37200;BME280;23096;50.892;16.746;2023-04-07T04:03:41;99376.20;;;2.71;62.52
37200;BME280;23096;50.892;16.746;2023-04-07T04:06:21;99378.90;;;2.67;62.59
37200;BME280;23096;50.892;16.746;2023-04-07T04:08:47;99383.81;;;2.66;62.70
37200;BME280;23096;50.892;16.746;2023-04-07T04:11:13;99383.82;;;2.65;62.89
37200;BME280;23096;50.892;16.746;2023-04-07T04:13:44;99382.63;;;2.64;62.79
37200;BME280;23096;50.892;16.746;2023-04-07T04:16:10;99389.92;;;2.64;62.93
37200;BME280;23096;50.892;16.746;2023-04-07T04:18:36;99386.86;;;2.64;62.94
37200;BME280;23096;50.892;16.746;2023-04-07T04:21:02;99386.52;;;2.62;62.95
37200;BME280;23096;50.892;16.746;2023-04-07T04:23:28;99388.22;;;2.60;63.30
37200;BME280;23096;50.892;16.746;2023-04-07T04:25:54;99389.56;;;2.57;63.26
37200;BME280;23096;50.892;16.746;2023-04-07T04:28:20;99392.94;;;2.57;63.33
37200;BME280;23096;50.892;16.746;2023-04-07T04:30:45;99391.08;;;2.57;63.50
37200;BME280;23096;50.892;16.746;2023-04-07T04:33:12;99392.11;;;2.58;63.55
37200;BME280;23096;50.892;16.746;2023-04-07T04:35:48;99388.55;;;2.60;63.66
37200;BME280;23096;50.892;16.746;2023-04-07T04:38:15;99388.71;;;2.61;63.72
37200;BME280;23096;50.892;16.746;2023-04-07T04:40:45;99390.59;;;2.60;63.82
37200;BME280;23096;50.892;16.746;2023-04-07T04:43:11;99390.73;;;2.54;63.78
37200;BME280;23096;50.892;16.746;2023-04-07T04:45:38;99393.61;;;2.49;63.83
37200;BME280;23096;50.892;16.746;2023-04-07T04:48:05;99393.09;;;2.46;63.96
37200;BME280;23096;50.892;16.746;2023-04-07T04:50:31;99386.66;;;2.47;64.17
37200;BME280;23096;50.892;16.746;2023-04-07T04:52:57;99388.52;;;2.48;64.10
37200;BME280;23096;50.892;16.746;2023-04-07T04:55:22;99386.81;;;2.46;64.26
37200;BME280;23096;50.892;16.746;2023-04-07T04:57:49;99384.77;;;2.45;64.54
37200;BME280;23096;50.892;16.746;2023-04-07T05:00:19;99384.26;;;2.43;64.56
37200;BME280;23096;50.892;16.746;2023-04-07T05:02:46;99383.73;;;2.40;64.64
37200;BME280;23096;50.892;16.746;2023-04-07T05:05:13;99380.84;;;2.38;64.72
37200;BME280;23096;50.892;16.746;2023-04-07T05:07:39;99381.02;;;2.38;64.77
37200;BME280;23096;50.892;16.746;2023-04-07T05:10:06;99380.67;;;2.32;64.98
37200;BME280;23096;50.892;16.746;2023-04-07T05:12:33;99381.33;;;2.28;64.97
37200;BME280;23096;50.892;16.746;2023-04-07T05:15:00;99382.85;;;2.27;65.14
37200;BME280;23096;50.892;16.746;2023-04-07T05:17:25;99384.71;;;2.24;65.26
37200;BME280;23096;50.892;16.746;2023-04-07T05:19:51;99384.36;;;2.24;65.44
37200;BME280;23096;50.892;16.746;2023-04-07T05:22:25;99384.70;;;2.24;65.60
37200;BME280;23096;50.892;16.746;2023-04-07T05:24:51;99383.84;;;2.23;65.54
37200;BME280;23096;50.892;16.746;2023-04-07T05:27:17;99383.34;;;2.22;65.63
37200;BME280;23096;50.892;16.746;2023-04-07T05:29:43;99382.48;;;2.21;65.79
37200;BME280;23096;50.892;16.746;2023-04-07T05:32:14;99380.95;;;2.20;65.90
37200;BME280;23096;50.892;16.746;2023-04-07T05:34:40;99383.16;;;2.21;66.09
37200;BME280;23096;50.892;16.746;2023-04-07T05:37:06;99384.84;;;2.20;66.18
37200;BME280;23096;50.892;16.746;2023-04-07T05:39:32;99385.36;;;2.20;66.24
37200;BME280;23096;50.892;16.746;2023-04-07T05:41:58;99385.38;;;2.22;66.27
37200;BME280;23096;50.892;16.746;2023-04-07T05:44:25;99386.38;;;2.22;66.37
37200;BME280;23096;50.892;16.746;2023-04-07T05:46:51;99387.58;;;2.22;66.40
37200;BME280;23096;50.892;16.746;2023-04-07T05:49:17;99388.08;;;2.22;66.50
37200;BME280;23096;50.892;16.746;2023-04-07T05:51:45;99386.73;;;2.22;66.58
37200;BME280;23096;50.892;16.746;2023-04-07T05:54:11;99386.23;;;2.24;66.69
37200;BME280;23096;50.892;16.746;2023-04-07T05:56:36;99387.25;;;2.27;66.76
37200;BME280;23096;50.892;16.746;2023-04-07T05:59:03;99385.56;;;2.29;66.86
37200;BME280;23096;50.892;16.746;2023-04-07T06:01:29;99386.77;;;2.32;67.00
37200;BME280;23096;50.892;16.746;2023-04-07T06:03:56;99384.06;;;2.34;67.06
37200;BME280;23096;50.892;16.746;2023-04-07T06:06:24;99381.85;;;2.35;67.00
37200;BME280;23096;50.892;16.746;2023-04-07T06:08:51;99385.59;;;2.35;67.09
37200;BME280;23096;50.892;16.746;2023-04-07T06:11:16;99390.17;;;2.35;67.16
37200;BME280;23096;50.892;16.746;2023-04-07T06:13:42;99395.59;;;2.34;67.17
37200;BME280;23096;50.892;16.746;2023-04-07T06:16:07;99395.59;;;2.32;67.22
37200;BME280;23096;50.892;16.746;2023-04-07T06:18:33;99396.92;;;2.30;67.35
37200;BME280;23096;50.892;16.746;2023-04-07T06:20:59;99394.89;;;2.30;67.46
37200;BME280;23096;50.892;16.746;2023-04-07T06:23:24;99394.73;;;2.30;67.46
37200;BME280;23096;50.892;16.746;2023-04-07T06:25:50;99397.09;;;2.27;67.53
37200;BME280;23096;50.892;16.746;2023-04-07T06:28:18;99392.86;;;2.28;67.51
37200;BME280;23096;50.892;16.746;2023-04-07T06:30:43;99392.69;;;2.31;67.62
37200;BME280;23096;50.892;16.746;2023-04-07T06:33:10;99395.41;;;2.34;67.60
37200;BME280;23096;50.892;16.746;2023-04-07T06:35:38;99395.09;;;2.37;67.74
37200;BME280;23096;50.892;16.746;2023-04-07T06:38:05;99392.02;;;2.33;67.67
37200;BME280;23096;50.892;16.746;2023-04-07T06:40:32;99392.52;;;2.29;67.76
37200;BME280;23096;50.892;16.746;2023-04-07T06:42:57;99390.32;;;2.29;67.94
37200;BME280;23096;50.892;16.746;2023-04-07T06:45:29;99389.81;;;2.31;67.92
37200;BME280;23096;50.892;16.746;2023-04-07T06:47:54;99388.63;;;2.31;68.02
37200;BME280;23096;50.892;16.746;2023-04-07T06:50:20;99382.20;;;2.33;67.97
37200;BME280;23096;50.892;16.746;2023-04-07T06:52:46;99382.17;;;2.30;67.96
37200;BME280;23096;50.892;16.746;2023-04-07T06:55:12;99384.55;;;2.30;68.19
37200;BME280;23096;50.892;16.746;2023-04-07T06:57:38;99386.07;;;2.30;68.28
37200;BME280;23096;50.892;16.746;2023-04-07T07:00:04;99393.20;;;2.28;68.37
37200;BME280;23096;50.892;16.746;2023-04-07T07:02:32;99397.60;;;2.28;68.50
37200;BME280;23096;50.892;16.746;2023-04-07T07:04:57;99393.70;;;2.29;68.47
37200;BME280;23096;50.892;16.746;2023-04-07T07:07:23;99395.25;;;2.33;68.54
37200;BME280;23096;50.892;16.746;2023-04-07T07:09:50;99391.36;;;2.37;68.69
37200;BME280;23096;50.892;16.746;2023-04-07T07:12:16;99390.35;;;2.39;68.67
37200;BME280;23096;50.892;16.746;2023-04-07T07:14:42;99390.36;;;2.39;68.69
37200;BME280;23096;50.892;16.746;2023-04-07T07:17:08;99393.58;;;2.38;68.75
37200;BME280;23096;50.892;16.746;2023-04-07T07:19:33;99393.92;;;2.41;68.92
37200;BME280;23096;50.892;16.746;2023-04-07T07:22:00;99391.22;;;2.44;69.01
37200;BME280;23096;50.892;16.746;2023-04-07T07:24:28;99392.92;;;2.48;68.93
37200;BME280;23096;50.892;16.746;2023-04-07T07:26:54;99391.23;;;2.52;69.06
37200;BME280;23096;50.892;16.746;2023-04-07T07:29:21;99392.09;;;2.56;69.18
37200;BME280;23096;50.892;16.746;2023-04-07T07:31:47;99391.93;;;2.56;69.09
37200;BME280;23096;50.892;16.746;2023-04-07T07:34:12;99390.92;;;2.59;68.98
37200;BME280;23096;50.892;16.746;2023-04-07T07:36:38;99387.17;;;2.58;68.98
37200;BME280;23096;50.892;16.746;2023-04-07T07:39:04;99380.06;;;2.61;69.16
37200;BME280;23096;50.892;16.746;2023-04-07T07:41:30;99384.15;;;2.64;69.26
37200;BME280;23096;50.892;16.746;2023-04-07T07:43:55;99386.19;;;2.66;69.27
37200;BME280;23096;50.892;16.746;2023-04-07T07:46:21;99384.83;;;2.67;69.14
37200;BME280;23096;50.892;16.746;2023-04-07T07:48:48;99379.75;;;2.68;69.18
37200;BME280;23096;50.892;16.746;2023-04-07T07:51:15;99377.38;;;2.70;69.26
37200;BME280;23096;50.892;16.746;2023-04-07T07:53:40;99377.04;;;2.70;69.21
37200;BME280;23096;50.892;16.746;2023-04-07T07:56:06;99385.17;;;2.67;69.14
37200;BME280;23096;50.892;16.746;2023-04-07T07:58:31;99389.59;;;2.67;69.19
37200;BME280;23096;50.892;16.746;2023-04-07T08:00:57;99392.80;;;2.68;69.24
37200;BME280;23096;50.892;16.746;2023-04-07T08:03:22;99396.03;;;2.67;69.07
37200;BME280;23096;50.892;16.746;2023-04-07T08:05:48;99397.21;;;2.66;69.08
37200;BME280;23096;50.892;16.746;2023-04-07T08:08:14;99400.43;;;2.65;69.07
37200;BME280;23096;50.892;16.746;2023-04-07T08:10:40;99399.25;;;2.66;69.25
37200;BME280;23096;50.892;16.746;2023-04-07T08:13:06;99394.00;;;2.67;69.21
37200;BME280;23096;50.892;16.746;2023-04-07T08:15:31;99397.21;;;2.69;69.13
37200;BME280;23096;50.892;16.746;2023-04-07T08:17:57;99399.92;;;2.69;69.25
37200;BME280;23096;50.892;16.746;2023-04-07T08:20:24;99401.13;;;2.69;68.99
37200;BME280;23096;50.892;16.746;2023-04-07T08:22:50;99402.49;;;2.69;69.07
37200;BME280;23096;50.892;16.746;2023-04-07T08:25:16;99402.14;;;2.69;69.22
37200;BME280;23096;50.892;16.746;2023-04-07T08:27:42;99398.58;;;2.69;69.10
37200;BME280;23096;50.892;16.746;2023-04-07T08:30:07;99404.52;;;2.69;69.19
37200;BME280;23096;50.892;16.746;2023-04-07T08:32:41;99400.10;;;2.70;69.13
37200;BME280;23096;50.892;16.746;2023-04-07T08:35:07;99397.56;;;2.71;69.13
37200;BME280;23096;50.892;16.746;2023-04-07T08:37:33;99396.71;;;2.71;69.30
37200;BME280;23096;50.892;16.746;2023-04-07T08:40:00;99401.64;;;2.72;69.26
37200;BME280;23096;50.892;16.746;2023-04-07T08:42:31;99406.22;;;2.72;69.33
37200;BME280;23096;50.892;16.746;2023-04-07T08:45:03;99409.10;;;2.72;69.36
37200;BME280;23096;50.892;16.746;2023-04-07T08:47:31;99407.08;;;2.72;69.26
37200;BME280;23096;50.892;16.746;2023-04-07T08:50:04;99404.53;;;2.75;69.27
37200;BME280;23096;50.892;16.746;2023-04-07T08:52:38;99404.38;;;2.78;69.39
37200;BME280;23096;50.892;16.746;2023-04-07T08:55:05;99407.93;;;2.81;69.34
37200;BME280;23096;50.892;16.746;2023-04-07T08:57:33;99406.59;;;2.82;69.47
37200;BME280;23096;50.892;16.746;2023-04-07T09:00:00;99405.74;;;2.83;69.34
37200;BME280;23096;50.892;16.746;2023-04-07T09:02:49;99402.69;;;2.85;69.25
37200;BME280;23096;50.892;16.746;2023-04-07T09:05:16;99401.84;;;2.85;69.39
37200;BME280;23096;50.892;16.746;2023-04-07T09:07:41;99406.08;;;2.82;69.36
37200;BME280;23096;50.892;16.746;2023-04-07T09:10:10;99403.19;;;2.82;69.38
37200;BME280;23096;50.892;16.746;2023-04-07T09:12:36;99406.23;;;2.80;69.40
37200;BME280;23096;50.892;16.746;2023-04-07T09:15:02;99404.20;;;2.76;69.40
37200;BME280;23096;50.892;16.746;2023-04-07T09:17:28;99399.95;;;2.74;69.25
37200;BME280;23096;50.892;16.746;2023-04-07T09:19:56;99404.36;;;2.75;69.34
37200;BME280;23096;50.892;16.746;2023-04-07T09:28:03;99399.96;;;2.79;69.68
37200;BME280;23096;50.892;16.746;2023-04-07T09:30:31;99397.93;;;2.79;69.56
37200;BME280;23096;50.892;16.746;2023-04-07T09:32:58;99398.27;;;2.80;69.67
37200;BME280;23096;50.892;16.746;2023-04-07T09:35:24;99396.75;;;2.79;69.79
37200;BME280;23096;50.892;16.746;2023-04-07T09:38:02;99396.06;;;2.79;69.81
37200;BME280;23096;50.892;16.746;2023-04-07T09:40:28;99394.88;;;2.81;69.83
37200;BME280;23096;50.892;16.746;2023-04-07T09:42:53;99393.85;;;2.84;69.75
37200;BME280;23096;50.892;16.746;2023-04-07T09:45:27;99393.70;;;2.86;69.78
37200;BME280;23096;50.892;16.746;2023-04-07T09:47:53;99393.04;;;2.90;69.99
37200;BME280;23096;50.892;16.746;2023-04-07T09:50:38;99394.73;;;2.93;69.87
37200;BME280;23096;50.892;16.746;2023-04-07T09:53:04;99393.71;;;2.95;69.98
37200;BME280;23096;50.892;16.746;2023-04-07T09:55:30;99392.52;;;2.97;70.10
37200;BME280;23096;50.892;16.746;2023-04-07T09:57:56;99396.27;;;2.98;70.04
37200;BME280;23096;50.892;16.746;2023-04-07T10:00:22;99400.33;;;2.98;70.05
37200;BME280;23096;50.892;16.746;2023-04-07T10:02:48;99397.62;;;3.02;70.08
37200;BME280;23096;50.892;16.746;2023-04-07T10:05:15;99399.49;;;3.05;70.28
37200;BME280;23096;50.892;16.746;2023-04-07T10:07:42;99396.27;;;3.05;70.22
37200;BME280;23096;50.892;16.746;2023-04-07T10:10:08;99396.94;;;3.04;70.12
37200;BME280;23096;50.892;16.746;2023-04-07T10:12:36;99394.91;;;3.04;70.06
37200;BME280;23096;50.892;16.746;2023-04-07T10:15:02;99396.27;;;3.06;70.25
37200;BME280;23096;50.892;16.746;2023-04-07T10:17:30;99396.27;;;3.09;70.29
37200;BME280;23096;50.892;16.746;2023-04-07T10:20:00;99394.58;;;3.12;70.22
37200;BME280;23096;50.892;16.746;2023-04-07T10:22:27;99391.86;;;3.15;70.26
37200;BME280;23096;50.892;16.746;2023-04-07T10:24:58;99391.52;;;3.18;70.16
37200;BME280;23096;50.892;16.746;2023-04-07T10:28:03;99391.02;;;3.19;70.19
37200;BME280;23096;50.892;16.746;2023-04-07T10:30:31;99387.96;;;3.22;70.04
37200;BME280;23096;50.892;16.746;2023-04-07T10:32:57;99386.42;;;3.24;70.26
37200;BME280;23096;50.892;16.746;2023-04-07T10:35:23;99387.80;;;3.29;70.29
37200;BME280;23096;50.892;16.746;2023-04-07T10:40:38;99382.02;;;3.32;70.14
37200;BME280;23096;50.892;16.746;2023-04-07T10:43:06;99383.54;;;3.32;70.12
37200;BME280;23096;50.892;16.746;2023-04-07T10:48:12;99389.83;;;3.31;70.03
37200;BME280;23096;50.892;16.746;2023-04-07T10:50:38;99387.45;;;3.27;70.09
37200;BME280;23096;50.892;16.746;2023-04-07T10:53:08;99392.55;;;3.28;70.19
37200;BME280;23096;50.892;16.746;2023-04-07T10:58:15;99396.11;;;3.37;70.13
37200;BME280;23096;50.892;16.746;2023-04-07T11:00:41;99395.77;;;3.38;70.10
37200;BME280;23096;50.892;16.746;2023-04-07T11:03:10;99393.72;;;3.39;70.16
37200;BME280;23096;50.892;16.746;2023-04-07T11:05:40;99397.98;;;3.42;70.21
37200;BME280;23096;50.892;16.746;2023-04-07T11:08:06;99394.41;;;3.43;70.03
37200;BME280;23096;50.892;16.746;2023-04-07T11:10:35;99393.58;;;3.42;70.13
37200;BME280;23096;50.892;16.746;2023-04-07T11:13:06;99392.71;;;3.43;70.18
37200;BME280;23096;50.892;16.746;2023-04-07T11:15:35;99393.38;;;3.49;70.31
37200;BME280;23096;50.892;16.746;2023-04-07T11:18:21;99391.84;;;3.53;70.30
37200;BME280;23096;50.892;16.746;2023-04-07T11:20:52;99392.86;;;3.59;70.39
37200;BME280;23096;50.892;16.746;2023-04-07T11:23:20;99392.18;;;3.59;70.27
37200;BME280;23096;50.892;16.746;2023-04-07T11:25:49;99393.03;;;3.59;70.28
37200;BME280;23096;50.892;16.746;2023-04-07T11:28:15;99393.04;;;3.64;70.44
37200;BME280;23096;50.892;16.746;2023-04-07T11:30:51;99387.60;;;3.62;70.39
37200;BME280;23096;50.892;16.746;2023-04-07T11:33:25;99386.40;;;3.61;70.37
37200;BME280;23096;50.892;16.746;2023-04-07T11:35:58;99388.60;;;3.66;70.34
37200;BME280;23096;50.892;16.746;2023-04-07T11:38:34;99384.36;;;3.70;70.49
37200;BME280;23096;50.892;16.746;2023-04-07T11:41:13;99389.27;;;3.72;70.39
37200;BME280;23096;50.892;16.746;2023-04-07T11:43:40;99388.78;;;3.70;70.25
37200;BME280;23096;50.892;16.746;2023-04-07T11:46:14;99384.20;;;3.67;70.28
37200;BME280;23096;50.892;16.746;2023-04-07T11:48:42;99383.16;;;3.69;70.48
37200;BME280;23096;50.892;16.746;2023-04-07T11:51:16;99386.55;;;3.72;70.43
37200;BME280;23096;50.892;16.746;2023-04-07T11:53:42;99388.09;;;3.74;70.40
37200;BME280;23096;50.892;16.746;2023-04-07T11:56:09;99388.08;;;3.76;70.51
37200;BME280;23096;50.892;16.746;2023-04-07T11:58:36;99386.03;;;3.77;70.56
37200;BME280;23096;50.892;16.746;2023-04-07T12:01:05;99387.57;;;3.76;70.31
37200;BME280;23096;50.892;16.746;2023-04-07T12:03:36;99381.80;;;3.75;70.49
37200;BME280;23096;50.892;16.746;2023-04-07T12:06:03;99383.16;;;3.75;70.53
37200;BME280;23096;50.892;16.746;2023-04-07T12:08:40;99380.27;;;3.78;70.57
37200;BME280;23096;50.892;16.746;2023-04-07T12:11:06;99373.61;;;3.84;70.62
37200;BME280;23096;50.892;16.746;2023-04-07T12:13:33;99371.91;;;3.87;70.63
37200;BME280;23096;50.892;16.746;2023-04-07T12:15:58;99373.27;;;3.88;70.56
37200;BME280;23096;50.892;16.746;2023-04-07T12:18:25;99370.88;;;3.91;70.73
37200;BME280;23096;50.892;16.746;2023-04-07T12:20:51;99372.23;;;3.95;70.63
37200;BME280;23096;50.892;16.746;2023-04-07T12:23:16;99371.90;;;3.92;70.68
37200;BME280;23096;50.892;16.746;2023-04-07T12:25:42;99366.31;;;3.87;70.60
37200;BME280;23096;50.892;16.746;2023-04-07T12:28:07;99367.49;;;3.86;70.70
37200;BME280;23096;50.892;16.746;2023-04-07T12:30:33;99363.74;;;3.91;70.82
37200;BME280;23096;50.892;16.746;2023-04-07T12:32:58;99368.48;;;3.98;70.77
37200;BME280;23096;50.892;16.746;2023-04-07T12:35:24;99366.26;;;4.00;70.80
37200;BME280;23096;50.892;16.746;2023-04-07T12:37:50;99361.67;;;3.96;70.73
37200;BME280;23096;50.892;16.746;2023-04-07T12:40:17;99357.63;;;3.90;70.68
37200;BME280;23096;50.892;16.746;2023-04-07T12:42:43;99358.30;;;3.86;70.87
37200;BME280;23096;50.892;16.746;2023-04-07T12:45:08;99355.10;;;3.84;70.93
37200;BME280;23096;50.892;16.746;2023-04-07T12:47:34;99361.21;;;3.85;71.04
37200;BME280;23096;50.892;16.746;2023-04-07T12:50:00;99365.63;;;3.86;71.07
37200;BME280;23096;50.892;16.746;2023-04-07T12:52:26;99366.15;;;3.83;71.21
37200;BME280;23096;50.892;16.746;2023-04-07T12:54:52;99362.75;;;3.81;71.07
37200;BME280;23096;50.892;16.746;2023-04-07T12:57:18;99365.15;;;3.76;71.27
37200;BME280;23096;50.892;16.746;2023-04-07T12:59:43;99362.27;;;3.69;71.26
37200;BME280;23096;50.892;16.746;2023-04-07T13:02:09;99363.64;;;3.64;71.34
37200;BME280;23096;50.892;16.746;2023-04-07T13:04:38;99361.92;;;3.66;71.61
37200;BME280;23096;50.892;16.746;2023-04-07T13:07:07;99357.52;;;3.66;71.64
37200;BME280;23096;50.892;16.746;2023-04-07T13:09:34;99358.02;;;3.64;71.58
37200;BME280;23096;50.892;16.746;2023-04-07T13:11:59;99361.77;;;3.62;71.77
37200;BME280;23096;50.892;16.746;2023-04-07T13:14:25;99362.61;;;3.62;71.70
37200;BME280;23096;50.892;16.746;2023-04-07T13:16:51;99361.09;;;3.63;71.87
37200;BME280;23096;50.892;16.746;2023-04-07T13:19:17;99361.77;;;3.67;71.96
37200;BME280;23096;50.892;16.746;2023-04-07T13:21:42;99357.00;;;3.70;72.11